Time;durP1;ratioP1;P1;durP2;ratioP2;P2;SDS_P1;SDS_P2;PMS_P1;PMS_P2;Temp;Humidity;BMP_temperature;BMP_pressure;BME280_temperature;BME280_humidity;BME280_pressure;Samples;Min_cycle;Max_cycle;Signal;HPM_P1;HPM_P2
2024/03/20 06:41:49;;;;;;;4.15;2.80;;;;;;;;;;10501056;28;20423;-80
2024/03/20 06:46:50;;;;;;;3.92;2.78;;;;;;;;;;10496049;28;20056;-81
2024/03/20 06:51:51;;;;;;;3.50;2.75;;;;;;;;;;10496796;28;20029;-81
2024/03/20 06:56:58;;;;;;;;;;;;;;;;;;10497186;28;20436;-81
2024/03/20 07:02:01;;;;;;;6.75;4.50;;;;;;;;;;10497536;28;20441;-81
2024/03/20 07:07:06;;;;;;;6.40;3.50;;;;;;;;;;10497866;28;20033;-81
2024/03/20 07:12:07;;;;;;;4.35;3.20;;;;;;;;;;10497661;28;20021;-81
2024/03/20 07:17:08;;;;;;;4.68;3.72;;;;;;;;;;10489385;28;20083;-81
2024/03/20 07:22:11;;;;;;;4.97;3.60;;;;;;;;;;10498378;28;20100;-82
2024/03/20 07:27:12;;;;;;;4.53;3.03;;;;;;;;;;10504468;28;20040;-81
2024/03/20 07:32:13;;;;;;;4.78;3.42;;;;;;;;;;10524703;28;20076;-81
2024/03/20 07:37:15;;;;;;;5.03;3.28;;;;;;;;;;10501660;28;20035;-81
2024/03/20 07:42:16;;;;;;;4.43;3.53;;;;;;;;;;10499742;28;20059;-81
2024/03/20 07:47:18;;;;;;;5.50;3.85;;;;;;;;;;10501154;28;20031;-81
2024/03/20 07:52:19;;;;;;;3.95;3.13;;;;;;;;;;10480185;28;20047;-81
2024/03/20 07:57:20;;;;;;;5.97;4.63;;;;;;;;;;10471105;28;20036;-80
2024/03/20 08:02:21;;;;;;;5.28;2.95;;;;;;;;;;10469308;28;20118;-84
2024/03/20 08:07:22;;;;;;;5.93;3.00;;;;;;;;;;10472923;28;20477;-86
2024/03/20 08:12:26;;;;;;;4.30;3.22;;;;;;;;;;10470766;28;20142;-84
2024/03/20 08:17:27;;;;;;;5.00;3.40;;;;;;;;;;10473197;28;20114;-84
2024/03/20 08:22:29;;;;;;;6.03;3.55;;;;;;;;;;10476639;28;20174;-85
2024/03/20 08:27:30;;;;;;;6.82;3.78;;;;;;;;;;10481355;28;20055;-84
2024/03/20 08:32:31;;;;;;;8.05;5.10;;;;;;;;;;10507775;28;20043;-82
2024/03/20 08:37:32;;;;;;;8.13;4.25;;;;;;;;;;10510905;28;20021;-82
2024/03/20 08:42:33;;;;;;;6.35;3.80;;;;;;;;;;10498682;28;20017;-83
2024/03/20 08:47:35;;;;;;;6.75;4.00;;;;;;;;;;10469940;28;20074;-82
2024/03/20 08:52:36;;;;;;;6.88;3.65;;;;;;;;;;10471010;28;20033;-85
2024/03/20 08:57:39;;;;;;;7.80;3.80;;;;;;;;;;10469469;28;20082;-84
2024/03/20 09:02:40;;;;;;;6.03;3.75;;;;;;;;;;10469689;28;20045;-83
2024/03/20 09:07:41;;;;;;;7.85;3.90;;;;;;;;;;10470880;28;20441;-84
2024/03/20 09:12:42;;;;;;;7.20;3.90;;;;;;;;;;10471441;28;20052;-84
2024/03/20 09:17:48;;;;;;;6.60;4.10;;;;;;;;;;10470706;28;20032;-85
2024/03/20 09:22:49;;;;;;;6.30;3.65;;;;;;;;;;10472304;28;20025;-84
2024/03/20 09:27:50;;;;;;;10.88;3.85;;;;;;;;;;10471079;28;20114;-84
2024/03/20 09:32:51;;;;;;;5.45;3.38;;;;;;;;;;10471275;28;20029;-85
2024/03/20 09:37:52;;;;;;;6.03;3.45;;;;;;;;;;10376896;22;20046;-85
2024/03/20 09:42:54;;;;;;;6.25;3.58;;;;;;;;;;10356827;28;20042;-83
2024/03/20 09:47:56;;;;;;;6.28;3.20;;;;;;;;;;10383644;28;20018;-84
2024/03/20 09:52:57;;;;;;;5.88;3.38;;;;;;;;;;10354406;28;20130;-84
2024/03/20 09:57:58;;;;;;;6.00;3.40;;;;;;;;;;10347487;28;20031;-84
2024/03/20 10:02:59;;;;;;;5.40;3.10;;;;;;;;;;10345196;28;20026;-85
2024/03/20 10:08:00;;;;;;;5.90;3.55;;;;;;;;;;10347768;28;20037;-85
2024/03/20 10:13:02;;;;;;;6.05;3.63;;;;;;;;;;10337725;28;20030;-85
2024/03/20 10:18:03;;;;;;;9.52;3.80;;;;;;;;;;10338847;28;20026;-84
2024/03/20 10:23:06;;;;;;;9.98;6.55;;;;;;;;;;10341731;28;20024;-82
2024/03/20 10:28:12;;;;;;;5.97;3.83;;;;;;;;;;10345533;28;20023;-83
2024/03/20 10:33:17;;;;;;;10.45;4.53;;;;;;;;;;10348349;28;20102;-85
2024/03/20 10:38:19;;;;;;;7.88;3.80;;;;;;;;;;10352259;28;20036;-83
2024/03/20 10:43:21;;;;;;;10.20;4.00;;;;;;;;;;10351659;28;20034;-83
2024/03/20 10:48:23;;;;;;;7.20;4.20;;;;;;;;;;10358261;28;20057;-82
2024/03/20 10:53:25;;;;;;;5.93;4.45;;;;;;;;;;10364178;28;20026;-83
2024/03/20 10:58:28;;;;;;;9.68;5.93;;;;;;;;;;10370999;28;20034;-82
2024/03/20 11:03:51;;;;;;;5.97;3.50;;;;;;;;;;10353168;28;20018;-83
2024/03/20 11:08:57;;;;;;;7.93;3.75;;;;;;;;;;10341755;28;20034;-83
2024/03/20 11:13:58;;;;;;;6.78;4.22;;;;;;;;;;10342169;28;20133;-83
2024/03/20 11:19:05;;;;;;;5.82;3.05;;;;;;;;;;10342432;28;20053;-83
2024/03/20 11:24:06;;;;;;;6.55;3.03;;;;;;;;;;10344700;28;20026;-83
2024/03/20 11:29:10;;;;;;;5.50;2.85;;;;;;;;;;10352567;28;20171;-84
2024/03/20 11:34:11;;;;;;;3.50;2.65;;;;;;;;;;10353524;28;20030;-84
2024/03/20 11:39:13;;;;;;;7.07;2.80;;;;;;;;;;10357336;28;20033;-84
2024/03/20 11:44:14;;;;;;;6.93;2.80;;;;;;;;;;10361901;28;20102;-84
2024/03/20 11:49:15;;;;;;;6.88;4.20;;;;;;;;;;10365369;28;20117;-84
2024/03/20 11:54:17;;;;;;;8.35;4.20;;;;;;;;;;10370389;28;20031;-84
2024/03/20 11:59:19;;;;;;;4.90;2.70;;;;;;;;;;10348861;28;20080;-84
2024/03/20 12:04:21;;;;;;;4.57;3.47;;;;;;;;;;10349233;28;20520;-84
2024/03/20 12:09:22;;;;;;;3.97;2.35;;;;;;;;;;10333742;28;20030;-84
2024/03/20 12:14:23;;;;;;;4.43;2.50;;;;;;;;;;10348023;28;20033;-83
2024/03/20 12:19:24;;;;;;;4.55;2.65;;;;;;;;;;10348821;28;20204;-83
2024/03/20 12:24:25;;;;;;;3.75;2.20;;;;;;;;;;10350228;28;20026;-82
2024/03/20 12:29:27;;;;;;;5.10;3.15;;;;;;;;;;10349757;28;20034;-84
2024/03/20 12:34:30;;;;;;;4.20;2.65;;;;;;;;;;10350574;28;20049;-84
2024/03/20 12:39:31;;;;;;;4.05;2.53;;;;;;;;;;10352287;28;20037;-84
2024/03/20 12:44:34;;;;;;;6.03;2.13;;;;;;;;;;10353559;28;20030;-84
2024/03/20 12:49:35;;;;;;;3.85;2.90;;;;;;;;;;10353147;28;20026;-84
2024/03/20 12:54:36;;;;;;;4.00;2.40;;;;;;;;;;10352987;28;20101;-85
2024/03/20 12:59:37;;;;;;;5.10;2.88;;;;;;;;;;10352660;28;20064;-84
2024/03/20 13:04:38;;;;;;;4.30;2.33;;;;;;;;;;10363250;28;20027;-82
2024/03/20 13:09:39;;;;;;;3.90;2.45;;;;;;;;;;10373542;28;20037;-82
2024/03/20 13:14:40;;;;;;;4.95;2.03;;;;;;;;;;10344544;28;20041;-83
2024/03/20 13:19:42;;;;;;;6.38;3.28;;;;;;;;;;10346749;28;20105;-82
2024/03/20 13:24:43;;;;;;;5.75;2.88;;;;;;;;;;10348448;28;20022;-83
2024/03/20 13:29:49;;;;;;;6.18;4.85;;;;;;;;;;10348985;28;20030;-82
2024/03/20 13:34:53;;;;;;;5.22;2.45;;;;;;;;;;10345271;28;20138;-83
2024/03/20 13:40:15;;;;;;;4.38;2.88;;;;;;;;;;10341186;28;20019;-83
2024/03/20 13:45:16;;;;;;;4.63;2.88;;;;;;;;;;10338587;28;20394;-82
2024/03/20 13:50:17;;;;;;;6.10;2.78;;;;;;;;;;10341934;28;20022;-83
2024/03/20 13:55:19;;;;;;;4.43;2.78;;;;;;;;;;10340993;28;20435;-82
2024/03/20 14:00:21;;;;;;;4.63;3.33;;;;;;;;;;10345233;28;20050;-82
2024/03/20 14:05:23;;;;;;;3.65;2.85;;;;;;;;;;10389661;22;20069;-82
2024/03/20 14:10:24;;;;;;;3.83;2.72;;;;;;;;;;10385495;28;20100;-84
2024/03/20 14:15:25;;;;;;;5.78;2.83;;;;;;;;;;10418731;28;20204;-81
2024/03/20 14:20:29;;;;;;;4.10;2.60;;;;;;;;;;10423776;28;20028;-82
2024/03/20 14:25:33;;;;;;;6.32;2.35;;;;;;;;;;10422513;28;20029;-83
2024/03/20 14:30:36;;;;;;;4.00;2.90;;;;;;;;;;10423696;28;20028;-82
2024/03/20 14:35:37;;;;;;;3.97;2.58;;;;;;;;;;10427220;28;20018;-82
2024/03/20 14:40:38;;;;;;;3.95;2.50;;;;;;;;;;10422207;28;20129;-80
2024/03/20 14:45:39;;;;;;;4.45;2.20;;;;;;;;;;10420752;28;20354;-81
2024/03/20 14:50:40;;;;;;;5.22;2.50;;;;;;;;;;10419577;28;20026;-82
2024/03/20 14:55:46;;;;;;;5.53;2.60;;;;;;;;;;10426764;28;20034;-82
2024/03/20 15:01:01;;;;;;;4.35;2.38;;;;;;;;;;10430049;28;20029;-83
2024/03/20 15:06:02;;;;;;;2.97;2.60;;;;;;;;;;10450488;28;20033;-81
2024/03/20 15:11:04;;;;;;;5.78;3.25;;;;;;;;;;10452524;28;20451;-83
2024/03/20 15:16:08;;;;;;;5.22;3.28;;;;;;;;;;10451722;28;20056;-82
2024/03/20 15:21:15;;;;;;;5.40;3.10;;;;;;;;;;10448559;28;20025;-83
2024/03/20 15:26:17;;;;;;;4.97;3.78;;;;;;;;;;10445277;28;20022;-82
2024/03/20 15:31:21;;;;;;;5.50;3.03;;;;;;;;;;10433260;28;20029;-82
2024/03/20 15:36:22;;;;;;;6.38;2.80;;;;;;;;;;10444375;28;20033;-82
2024/03/20 15:41:26;;;;;;;5.22;3.10;;;;;;;;;;10440361;28;20030;-82
2024/03/20 15:46:27;;;;;;;5.07;3.00;;;;;;;;;;10440283;28;20100;-82
2024/03/20 15:51:29;;;;;;;6.15;3.42;;;;;;;;;;10442890;28;20033;-83
2024/03/20 15:56:31;;;;;;;5.90;3.33;;;;;;;;;;10437567;28;20026;-82
2024/03/20 16:01:32;;;;;;;5.30;2.88;;;;;;;;;;10438243;28;20026;-84
2024/03/20 16:06:35;;;;;;;4.05;3.00;;;;;;;;;;10425652;28;20154;-82
2024/03/20 16:11:36;;;;;;;3.83;2.42;;;;;;;;;;10433559;28;20033;-83
2024/03/20 16:16:37;;;;;;;4.07;2.40;;;;;;;;;;10431440;28;20049;-82
2024/03/20 16:21:40;;;;;;;4.15;2.13;;;;;;;;;;10431058;28;20056;-82
2024/03/20 16:26:41;;;;;;;4.75;2.47;;;;;;;;;;10427286;28;20026;-82
2024/03/20 16:31:42;;;;;;;3.50;2.28;;;;;;;;;;10425595;28;20120;-82
2024/03/20 16:36:46;;;;;;;3.35;2.33;;;;;;;;;;10428525;28;20026;-84
2024/03/20 16:41:47;;;;;;;3.47;2.42;;;;;;;;;;10428879;28;20051;-81
2024/03/20 16:46:48;;;;;;;4.22;2.20;;;;;;;;;;10437923;28;20048;-82
2024/03/20 16:51:51;;;;;;;3.80;2.30;;;;;;;;;;10423212;28;20162;-81
2024/03/20 16:56:52;;;;;;;3.47;2.00;;;;;;;;;;10422725;28;20389;-81
2024/03/20 17:01:53;;;;;;;3.67;2.10;;;;;;;;;;10428282;28;20037;-84
2024/03/20 17:06:55;;;;;;;6.38;2.35;;;;;;;;;;10431168;28;20051;-83
2024/03/20 17:11:59;;;;;;;3.40;2.03;;;;;;;;;;10434151;28;20079;-84
2024/03/20 17:17:01;;;;;;;4.93;2.50;;;;;;;;;;10428386;28;20393;-84
2024/03/20 17:22:02;;;;;;;5.47;2.95;;;;;;;;;;10430484;28;20010;-84
2024/03/20 17:27:04;;;;;;;3.35;2.60;;;;;;;;;;10438557;28;20037;-84
2024/03/20 17:32:06;;;;;;;3.53;2.67;;;;;;;;;;10443115;28;20116;-84
2024/03/20 17:37:07;;;;;;;4.25;2.20;;;;;;;;;;10445208;28;20017;-85
2024/03/20 17:42:08;;;;;;;7.03;5.70;;;;;;;;;;10440814;28;20121;-84
2024/03/20 17:47:10;;;;;;;3.00;2.65;;;;;;;;;;10441084;28;20373;-84
2024/03/20 17:52:13;;;;;;;3.25;2.50;;;;;;;;;;10439716;28;20021;-84
2024/03/20 17:57:14;;;;;;;6.40;3.13;;;;;;;;;;10438912;28;20075;-85
2024/03/20 18:02:15;;;;;;;5.90;4.32;;;;;;;;;;10436277;28;20028;-85
2024/03/20 18:07:16;;;;;;;8.50;6.78;;;;;;;;;;10434854;28;20088;-85
2024/03/20 18:12:17;;;;;;;8.50;6.05;;;;;;;;;;10434604;28;20021;-85
2024/03/20 18:17:19;;;;;;;5.55;4.45;;;;;;;;;;10433119;28;20024;-85
2024/03/20 18:22:20;;;;;;;9.40;7.30;;;;;;;;;;10436141;28;20372;-85
2024/03/20 18:27:21;;;;;;;6.05;4.40;;;;;;;;;;10432463;28;20017;-85
2024/03/20 18:32:22;;;;;;;8.15;5.38;;;;;;;;;;10433727;28;20489;-85
2024/03/20 18:37:23;;;;;;;6.25;4.80;;;;;;;;;;10437886;28;20060;-84
2024/03/20 18:42:24;;;;;;;11.90;8.63;;;;;;;;;;10440934;28;20570;-84
2024/03/20 18:47:26;;;;;;;9.27;6.68;;;;;;;;;;10438539;28;20021;-84
2024/03/20 18:52:27;;;;;;;5.70;4.88;;;;;;;;;;10435524;28;20029;-85
2024/03/20 18:57:29;;;;;;;6.00;5.32;;;;;;;;;;10438148;28;20097;-85
2024/03/20 19:02:31;;;;;;;7.63;5.95;;;;;;;;;;10436840;28;20064;-85
2024/03/20 19:07:33;;;;;;;7.10;5.68;;;;;;;;;;10433958;28;20025;-85
2024/03/20 19:12:35;;;;;;;6.35;5.28;;;;;;;;;;10434505;28;20033;-85
2024/03/20 19:17:36;;;;;;;7.05;5.28;;;;;;;;;;10433527;28;20072;-85
2024/03/20 19:22:37;;;;;;;6.85;5.70;;;;;;;;;;10436536;28;20022;-84
2024/03/20 19:27:41;;;;;;;7.22;5.50;;;;;;;;;;10436599;28;20477;-84
2024/03/20 19:32:42;;;;;;;9.27;7.82;;;;;;;;;;10436570;28;20056;-83
2024/03/20 19:37:43;;;;;;;7.55;6.55;;;;;;;;;;10438530;28;20128;-83
2024/03/20 19:42:45;;;;;;;9.88;6.40;;;;;;;;;;10437504;28;20021;-84
2024/03/20 19:47:46;;;;;;;7.90;5.97;;;;;;;;;;10431713;28;20037;-85
2024/03/20 19:52:47;;;;;;;7.35;5.70;;;;;;;;;;10458528;28;20044;-84
2024/03/20 19:57:48;;;;;;;7.20;6.00;;;;;;;;;;10456853;28;20037;-84
2024/03/20 20:02:53;;;;;;;7.07;6.00;;;;;;;;;;10467987;22;20040;-81
